createdAt,value
2017-12-12T00:01:25.767Z,22.31
2017-12-12T00:03:28.956Z,22.31
2017-12-12T00:05:32.083Z,22.31
2017-12-12T00:07:35.316Z,22.31
2017-12-12T00:09:38.499Z,22.31
2017-12-12T00:11:41.639Z,22.30
2017-12-12T00:13:44.680Z,22.31
2017-12-12T00:15:47.739Z,22.30
2017-12-12T00:17:51.232Z,22.30
2017-12-12T00:19:54.284Z,22.30
2017-12-12T00:21:57.326Z,22.30
2017-12-12T00:24:00.512Z,22.30
2017-12-12T00:26:03.537Z,22.29
2017-12-12T00:28:06.725Z,22.29
2017-12-12T00:30:09.877Z,22.28
2017-12-12T00:32:12.992Z,22.28
2017-12-12T00:34:16.024Z,22.28
2017-12-12T00:36:19.184Z,22.28
2017-12-12T00:38:22.205Z,22.28
2017-12-12T00:40:25.236Z,22.28
2017-12-12T00:42:28.349Z,22.28
2017-12-12T00:44:31.433Z,22.28
2017-12-12T00:46:34.544Z,22.28
2017-12-12T00:48:37.596Z,22.28
2017-12-12T00:50:40.619Z,22.28
2017-12-12T00:52:43.720Z,22.27
2017-12-12T00:54:47.002Z,22.28
2017-12-12T00:56:50.079Z,22.27
2017-12-12T00:58:53.364Z,22.26
2017-12-12T01:00:56.491Z,22.26
2017-12-12T01:02:59.594Z,22.27
2017-12-12T01:05:02.781Z,22.26
2017-12-12T01:07:05.868Z,22.26
2017-12-12T01:09:08.857Z,22.25
2017-12-12T01:11:11.873Z,22.26
2017-12-12T01:13:14.953Z,22.25
2017-12-12T01:15:18.219Z,22.25
2017-12-12T01:17:21.403Z,22.25
2017-12-12T01:19:24.467Z,22.25
2017-12-12T01:21:27.722Z,22.25
2017-12-12T01:23:30.782Z,22.25
2017-12-12T01:25:33.883Z,22.24
2017-12-12T01:27:36.878Z,22.24
2017-12-12T01:29:40.001Z,22.24
2017-12-12T01:31:43.033Z,22.24
2017-12-12T01:33:46.053Z,22.23
2017-12-12T01:35:49.151Z,22.23
2017-12-12T01:37:52.192Z,22.23
2017-12-12T01:39:55.322Z,22.22
2017-12-12T01:41:58.378Z,22.22
2017-12-12T01:44:01.490Z,22.23
2017-12-12T01:46:04.492Z,22.22
2017-12-12T01:48:07.525Z,22.22
2017-12-12T01:50:10.572Z,22.22
2017-12-12T01:52:13.614Z,22.22
2017-12-12T01:54:16.630Z,22.21
2017-12-12T01:56:19.727Z,22.22
2017-12-12T01:58:22.837Z,22.21
2017-12-12T02:00:26.048Z,22.21
2017-12-12T02:02:29.099Z,22.21
2017-12-12T02:04:32.194Z,22.20
2017-12-12T02:06:35.318Z,22.21
2017-12-12T02:08:38.364Z,22.20
2017-12-12T02:10:41.391Z,22.20
2017-12-12T02:12:44.459Z,22.20
2017-12-12T02:14:47.595Z,22.19
2017-12-12T02:16:50.741Z,22.20
2017-12-12T02:18:53.764Z,22.20
2017-12-12T02:20:56.809Z,22.18
2017-12-12T02:22:59.928Z,22.19
2017-12-12T02:25:03.016Z,22.19
2017-12-12T02:27:06.163Z,22.19
2017-12-12T02:29:09.251Z,22.19
2017-12-12T02:31:12.334Z,22.18
2017-12-12T02:33:15.519Z,22.18
2017-12-12T02:35:18.585Z,22.17
2017-12-12T02:37:21.663Z,22.18
2017-12-12T02:39:24.712Z,22.17
2017-12-12T02:41:27.857Z,22.17
2017-12-12T02:43:30.953Z,22.18
2017-12-12T02:45:34.129Z,22.18
2017-12-12T02:47:37.216Z,22.17
2017-12-12T02:49:40.355Z,22.18
2017-12-12T02:51:43.435Z,22.18
2017-12-12T02:53:46.500Z,22.17
2017-12-12T02:55:49.532Z,22.17
2017-12-12T02:57:52.577Z,22.17
2017-12-12T02:59:55.651Z,22.17
2017-12-12T03:01:59.027Z,22.18
2017-12-12T03:04:02.077Z,22.17
2017-12-12T03:06:05.180Z,22.17
2017-12-12T03:08:08.276Z,22.17
2017-12-12T03:10:11.375Z,22.17
2017-12-12T03:12:14.479Z,22.16
2017-12-12T03:14:17.623Z,22.17
2017-12-12T03:16:20.652Z,22.17
2017-12-12T03:18:23.756Z,22.16
2017-12-12T03:20:26.856Z,22.17
2017-12-12T03:22:29.958Z,22.16
2017-12-12T03:24:33.057Z,22.15
2017-12-12T03:26:36.169Z,22.15
2017-12-12T03:28:39.346Z,22.16
2017-12-12T03:30:42.405Z,22.16
2017-12-12T03:32:45.625Z,22.16
2017-12-12T03:34:48.688Z,22.15
2017-12-12T03:36:51.705Z,22.15
2017-12-12T03:38:54.859Z,22.14
2017-12-12T03:40:57.888Z,22.15
2017-12-12T03:43:01.015Z,22.15
2017-12-12T03:45:04.048Z,22.15
2017-12-12T03:47:07.122Z,22.15
2017-12-12T03:49:10.274Z,22.15
2017-12-12T03:51:13.284Z,22.14
2017-12-12T03:53:16.448Z,22.15
2017-12-12T03:55:19.560Z,22.15
2017-12-12T03:57:22.800Z,22.16
2017-12-12T03:59:26.206Z,22.15
2017-12-12T04:01:29.239Z,22.15
2017-12-12T04:03:32.400Z,22.15
2017-12-12T04:05:35.513Z,22.15
2017-12-12T04:07:38.531Z,22.14
2017-12-12T04:09:41.552Z,22.15
2017-12-12T04:11:44.805Z,22.13
2017-12-12T04:13:47.822Z,22.13
2017-12-12T04:15:51.004Z,22.13
2017-12-12T04:17:54.095Z,22.13
2017-12-12T04:19:57.250Z,22.14
2017-12-12T04:22:00.351Z,22.13
2017-12-12T04:24:03.404Z,22.13
2017-12-12T04:26:06.608Z,22.13
2017-12-12T04:28:09.608Z,22.13
2017-12-12T04:30:12.694Z,22.12
2017-12-12T04:32:15.756Z,22.13
2017-12-12T04:34:18.800Z,22.12
2017-12-12T04:36:21.856Z,22.12
2017-12-12T04:38:24.948Z,22.12
2017-12-12T04:40:28.160Z,22.12
2017-12-12T04:42:31.213Z,22.13
2017-12-12T04:44:34.268Z,22.13
2017-12-12T04:46:37.451Z,22.12
2017-12-12T04:48:40.673Z,22.12
2017-12-12T04:50:43.823Z,22.12
2017-12-12T04:52:46.848Z,22.12
2017-12-12T04:54:49.997Z,22.11
2017-12-12T04:56:53.264Z,22.12
2017-12-12T04:58:56.333Z,22.11
2017-12-12T05:00:59.407Z,22.11
2017-12-12T05:03:02.478Z,22.12
2017-12-12T05:05:05.930Z,22.11
2017-12-12T05:07:08.952Z,22.10
2017-12-12T05:09:12.079Z,22.11
2017-12-12T05:11:15.127Z,22.10
2017-12-12T05:13:18.160Z,22.10
2017-12-12T05:15:21.209Z,22.10
2017-12-12T05:17:24.332Z,22.10
2017-12-12T05:19:27.359Z,22.10
2017-12-12T05:21:30.388Z,22.10
2017-12-12T05:23:33.410Z,22.10
2017-12-12T05:25:36.571Z,22.10
2017-12-12T05:27:39.600Z,22.10
2017-12-12T05:29:42.637Z,22.09
2017-12-12T05:31:45.804Z,22.09
2017-12-12T05:33:48.876Z,22.09
2017-12-12T05:35:51.946Z,22.09
2017-12-12T05:37:55.126Z,22.09
2017-12-12T05:39:58.144Z,22.10
2017-12-12T05:42:01.196Z,22.09
2017-12-12T05:44:04.254Z,22.09
2017-12-12T05:46:07.371Z,22.09
2017-12-12T05:48:10.566Z,22.09
2017-12-12T05:50:13.615Z,22.09
2017-12-12T05:52:16.640Z,22.09
2017-12-12T05:54:19.759Z,22.10
2017-12-12T05:56:22.960Z,22.09
2017-12-12T05:58:26.156Z,22.09
2017-12-12T06:00:29.244Z,22.08
2017-12-12T06:02:32.380Z,22.08
2017-12-12T06:04:35.402Z,22.08
2017-12-12T06:06:38.572Z,22.08
2017-12-12T06:08:41.631Z,22.08
2017-12-12T06:10:44.668Z,22.08
2017-12-12T06:12:47.791Z,22.08
2017-12-12T06:14:50.895Z,22.07
2017-12-12T06:16:53.912Z,22.07
2017-12-12T06:18:56.942Z,22.07
2017-12-12T06:21:05.560Z,22.07
2017-12-12T06:23:08.673Z,22.07
2017-12-12T06:25:11.756Z,22.07
2017-12-12T06:27:16.324Z,22.07
2017-12-12T06:29:19.448Z,22.07
2017-12-12T06:31:22.546Z,22.07
2017-12-12T06:33:25.632Z,22.07
2017-12-12T06:35:28.619Z,22.07
2017-12-12T06:37:31.742Z,22.07
2017-12-12T06:39:34.935Z,22.07
2017-12-12T06:41:38.084Z,22.07
2017-12-12T06:43:41.251Z,22.07
2017-12-12T06:45:44.448Z,22.07
2017-12-12T06:47:47.455Z,22.07
2017-12-12T06:49:50.512Z,22.07
2017-12-12T06:51:53.944Z,22.07
2017-12-12T06:53:56.968Z,22.07
2017-12-12T06:56:00.009Z,22.08
2017-12-12T06:58:03.093Z,22.08
2017-12-12T07:00:06.151Z,22.08
2017-12-12T07:02:09.364Z,22.03
2017-12-12T07:04:12.452Z,21.96
2017-12-12T07:06:15.701Z,21.92
2017-12-12T07:08:18.889Z,21.88
2017-12-12T07:10:21.948Z,21.85
2017-12-12T07:12:24.972Z,21.82
2017-12-12T07:14:28.064Z,21.80
2017-12-12T07:16:31.096Z,21.76
2017-12-12T07:18:34.127Z,21.75
2017-12-12T07:20:37.195Z,21.75
2017-12-12T07:22:40.306Z,21.77
2017-12-12T07:24:43.431Z,21.78
2017-12-12T07:26:46.526Z,21.80
2017-12-12T07:28:49.551Z,21.80
2017-12-12T07:30:52.595Z,21.82
2017-12-12T07:32:55.707Z,21.82
2017-12-12T07:34:58.783Z,21.85
2017-12-12T07:37:02.000Z,21.86
2017-12-12T07:39:05.019Z,21.87
2017-12-12T07:41:08.092Z,21.88
2017-12-12T07:43:11.188Z,21.89
2017-12-12T07:45:14.210Z,21.90
2017-12-12T07:47:17.316Z,21.90
2017-12-12T07:49:20.461Z,21.91
2017-12-12T07:51:23.488Z,21.92
2017-12-12T07:53:26.574Z,21.93
2017-12-12T07:55:29.697Z,21.94
2017-12-12T07:57:32.734Z,21.95
2017-12-12T07:59:35.954Z,21.96
2017-12-12T08:01:39.035Z,21.97
2017-12-12T08:03:42.078Z,21.99
2017-12-12T08:05:45.160Z,21.99
2017-12-12T08:07:48.184Z,22.00
2017-12-12T08:09:51.646Z,22.01
2017-12-12T08:11:55.026Z,22.03
2017-12-12T08:13:58.043Z,22.04
2017-12-12T08:16:01.092Z,22.06
2017-12-12T08:18:04.229Z,22.07
2017-12-12T08:20:07.248Z,22.08
2017-12-12T08:22:10.387Z,22.09
2017-12-12T08:24:14.397Z,22.10
2017-12-12T08:26:17.461Z,22.11
2017-12-12T08:28:20.479Z,22.12
2017-12-12T08:30:23.539Z,22.13
2017-12-12T08:32:26.697Z,22.13
2017-12-12T08:34:29.986Z,22.15
2017-12-12T08:36:33.189Z,22.18
2017-12-12T08:38:36.245Z,22.17
2017-12-12T08:40:39.450Z,22.18
2017-12-12T08:42:42.535Z,22.20
2017-12-12T08:44:45.736Z,22.21
2017-12-12T08:46:48.768Z,22.23
2017-12-12T08:48:51.821Z,22.24
2017-12-12T08:50:54.876Z,22.25
2017-12-12T08:52:57.937Z,22.27
2017-12-12T08:55:01.129Z,22.28
2017-12-12T10:12:36.790Z,22.14
2017-12-12T10:14:39.910Z,22.18
2017-12-12T10:16:42.913Z,22.21
2017-12-12T10:18:46.207Z,22.25
2017-12-12T10:20:49.297Z,22.22
2017-12-12T10:22:52.326Z,22.10
2017-12-12T10:24:55.405Z,21.99
2017-12-12T10:26:58.474Z,21.84
2017-12-12T10:29:01.570Z,21.75
2017-12-12T10:31:04.799Z,21.72
2017-12-12T10:33:07.950Z,21.75
2017-12-12T10:35:11.079Z,21.79
2017-12-12T10:37:14.573Z,21.86
2017-12-12T10:39:17.658Z,21.91
2017-12-12T10:41:20.676Z,21.96
2017-12-12T10:43:23.765Z,22.02
2017-12-12T10:45:26.828Z,22.07
2017-12-12T10:47:29.894Z,22.12
2017-12-12T10:49:33.032Z,22.14
2017-12-12T10:51:36.093Z,22.17
2017-12-12T10:53:39.351Z,22.20
2017-12-12T10:55:42.376Z,22.22
2017-12-12T10:57:45.553Z,22.23
2017-12-12T10:59:48.641Z,22.25
2017-12-12T11:01:51.687Z,22.26
2017-12-12T11:03:54.736Z,22.27
2017-12-12T11:05:57.773Z,22.29
2017-12-12T11:08:00.881Z,22.29
2017-12-12T11:10:03.922Z,22.29
2017-12-12T11:12:07.008Z,22.30
2017-12-12T11:14:10.213Z,22.31
2017-12-12T11:16:13.321Z,22.32
2017-12-12T11:18:16.466Z,22.32
2017-12-12T11:20:19.544Z,22.32
2017-12-12T11:22:22.577Z,22.32
2017-12-12T11:24:25.664Z,22.33
2017-12-12T11:26:28.851Z,22.33
2017-12-12T11:28:31.990Z,22.33
2017-12-12T11:30:35.101Z,22.33
2017-12-12T11:32:38.400Z,22.33
2017-12-12T11:34:41.441Z,22.33
2017-12-12T11:36:44.539Z,22.33
2017-12-12T11:38:47.760Z,22.33
2017-12-12T11:40:50.837Z,22.33
2017-12-12T11:42:53.874Z,22.32
2017-12-12T11:44:57.161Z,22.32
2017-12-12T11:47:00.176Z,22.31
2017-12-12T11:49:03.257Z,22.31
2017-12-12T11:51:06.377Z,22.31
2017-12-12T11:53:09.434Z,22.31
2017-12-12T11:55:12.462Z,22.31
2017-12-12T11:57:15.710Z,22.31
2017-12-12T11:59:18.782Z,22.30
2017-12-12T12:01:21.947Z,22.30
2017-12-12T12:03:25.092Z,22.31
2017-12-12T12:05:28.115Z,22.30
2017-12-12T12:07:31.154Z,22.30
2017-12-12T12:09:34.176Z,22.30
2017-12-12T12:11:37.204Z,22.30
2017-12-12T12:13:40.404Z,22.30
2017-12-12T12:15:43.569Z,22.30
2017-12-12T12:17:46.596Z,22.30
2017-12-12T12:19:49.671Z,22.30
2017-12-12T12:21:52.876Z,22.30
2017-12-12T12:23:55.952Z,22.30
2017-12-12T12:25:59.033Z,22.29
2017-12-12T12:28:02.181Z,22.29
2017-12-12T12:30:05.453Z,22.29
2017-12-12T12:32:08.475Z,22.29
2017-12-12T12:34:11.603Z,22.29
2017-12-12T12:36:14.831Z,22.28
2017-12-12T12:38:18.380Z,22.28
2017-12-12T12:40:21.489Z,22.28
2017-12-12T12:42:24.496Z,22.29
2017-12-12T12:44:27.561Z,22.30
2017-12-12T12:46:30.618Z,22.30
2017-12-12T12:48:33.706Z,22.32
2017-12-12T12:50:36.814Z,22.33
2017-12-12T12:52:39.855Z,22.34
2017-12-12T12:54:42.996Z,22.35
2017-12-12T12:56:46.129Z,22.36
2017-12-12T12:58:49.171Z,22.38
2017-12-12T13:00:52.493Z,22.39
2017-12-12T13:02:55.726Z,22.40
2017-12-12T13:04:58.755Z,22.41
2017-12-12T13:07:01.897Z,22.43
2017-12-12T13:09:04.912Z,22.43
2017-12-12T13:11:07.965Z,22.45
2017-12-12T13:13:11.072Z,22.45
2017-12-12T13:15:14.119Z,22.46
2017-12-12T13:17:17.460Z,22.47
2017-12-12T13:19:20.606Z,22.48
2017-12-12T13:21:23.691Z,22.49
2017-12-12T13:23:26.840Z,22.50
2017-12-12T13:25:30.006Z,22.50
2017-12-12T13:27:33.027Z,22.51
2017-12-12T13:29:36.079Z,22.51
2017-12-12T14:47:11.996Z,22.16
2017-12-12T14:49:15.033Z,22.19
2017-12-12T14:51:18.069Z,22.22
2017-12-12T14:53:21.185Z,22.25
2017-12-12T14:55:24.222Z,22.29
2017-12-12T14:57:27.272Z,22.32
2017-12-12T14:59:30.432Z,22.35
2017-12-12T15:01:33.527Z,22.38
2017-12-12T15:03:36.656Z,22.42
2017-12-12T15:05:39.716Z,22.43
2017-12-12T15:07:42.817Z,22.45
2017-12-12T15:09:45.977Z,22.47
2017-12-12T15:11:49.124Z,22.50
2017-12-12T15:13:52.323Z,22.51
2017-12-12T15:15:55.435Z,22.52
2017-12-12T15:17:58.516Z,22.52
2017-12-12T15:20:01.554Z,22.53
2017-12-12T15:22:04.600Z,22.54
2017-12-12T15:24:07.700Z,22.55
2017-12-12T15:26:10.755Z,22.55
2017-12-12T15:28:14.093Z,22.56
2017-12-12T15:30:17.198Z,22.56
2017-12-12T15:32:20.253Z,22.58
2017-12-12T15:34:23.319Z,22.58
2017-12-12T15:36:26.402Z,22.59
2017-12-12T15:38:29.512Z,22.59
2017-12-12T15:40:32.542Z,22.61
2017-12-12T15:42:35.681Z,22.62
2017-12-12T15:44:38.788Z,22.61
2017-12-12T15:46:41.813Z,22.61
2017-12-12T15:48:45.149Z,22.61
2017-12-12T15:50:48.284Z,22.63
2017-12-12T15:52:51.552Z,22.63
2017-12-12T15:54:54.758Z,22.62
2017-12-12T15:56:57.759Z,22.63
2017-12-12T15:59:00.833Z,22.63
2017-12-12T16:01:03.920Z,22.63
2017-12-12T16:03:07.068Z,22.65
2017-12-12T16:05:10.118Z,22.65
2017-12-12T16:07:13.163Z,22.65
2017-12-12T16:09:16.273Z,22.65
2017-12-12T16:11:19.306Z,22.65
2017-12-12T16:13:22.545Z,22.65
2017-12-12T16:15:25.748Z,22.66
2017-12-12T16:17:28.807Z,22.67
2017-12-12T16:19:31.931Z,22.68
2017-12-12T16:21:35.045Z,22.67
2017-12-12T16:23:38.073Z,22.68
2017-12-12T16:25:41.188Z,22.69
2017-12-12T16:27:44.317Z,22.69
2017-12-12T16:29:47.323Z,22.69
2017-12-12T16:31:50.396Z,22.71
2017-12-12T16:33:53.531Z,22.73
2017-12-12T16:35:56.607Z,22.74
2017-12-12T16:37:59.649Z,22.75
2017-12-12T16:40:02.788Z,22.75
2017-12-12T16:42:05.872Z,22.76
2017-12-12T16:44:08.944Z,22.77
2017-12-12T16:46:12.905Z,22.77
2017-12-12T16:48:16.087Z,22.77
2017-12-12T16:50:19.272Z,22.79
2017-12-12T16:52:22.460Z,22.79
2017-12-12T16:54:25.572Z,22.80
2017-12-12T16:56:28.660Z,22.81
2017-12-12T16:58:31.712Z,22.79
2017-12-12T17:00:34.718Z,22.81
2017-12-12T17:02:37.782Z,22.80
2017-12-12T17:04:40.825Z,22.79
2017-12-12T17:06:43.856Z,22.81
2017-12-12T17:08:46.993Z,22.79
2017-12-12T17:10:50.040Z,22.79
2017-12-12T17:12:53.065Z,22.79
2017-12-12T17:14:56.188Z,22.79
2017-12-12T17:16:59.196Z,22.78
2017-12-12T17:19:02.565Z,22.77
2017-12-12T17:21:05.684Z,22.75
2017-12-12T17:23:08.776Z,22.75
2017-12-12T17:25:11.838Z,22.73
2017-12-12T17:27:15.001Z,22.72
2017-12-12T17:29:18.092Z,22.71
2017-12-12T17:31:21.204Z,22.70
2017-12-12T17:33:24.295Z,22.68
2017-12-12T17:35:27.659Z,22.67
2017-12-12T17:37:30.933Z,22.67
2017-12-12T17:39:34.056Z,22.66
2017-12-12T17:41:37.104Z,22.64
2017-12-12T17:43:40.177Z,22.64
2017-12-12T17:45:43.228Z,22.63
2017-12-12T17:47:46.268Z,22.62
2017-12-12T17:49:49.371Z,22.61
2017-12-12T17:51:52.585Z,22.60
2017-12-12T17:53:55.636Z,22.59
2017-12-12T17:55:58.839Z,22.59
2017-12-12T17:58:01.908Z,22.58
2017-12-12T18:00:04.976Z,22.58
2017-12-12T18:02:08.053Z,22.57
2017-12-12T18:04:11.176Z,22.56
2017-12-12T18:06:14.373Z,22.55
2017-12-12T18:08:17.435Z,22.54
2017-12-12T18:10:20.491Z,22.54
2017-12-12T18:12:23.620Z,22.54
2017-12-12T18:14:26.728Z,22.53
2017-12-12T18:16:29.792Z,22.53
2017-12-12T18:18:32.824Z,22.51
2017-12-12T18:20:35.924Z,22.51
2017-12-12T18:22:39.030Z,22.50
2017-12-12T18:24:42.069Z,22.50
2017-12-12T18:26:45.099Z,22.50
2017-12-12T18:28:48.156Z,22.48
2017-12-12T18:30:51.188Z,22.48
2017-12-12T18:32:54.360Z,22.47
2017-12-12T18:34:57.472Z,22.46
2017-12-12T18:37:00.493Z,22.46
2017-12-12T18:39:03.669Z,22.45
2017-12-12T18:41:06.887Z,22.45
2017-12-12T18:43:09.985Z,22.44
2017-12-12T18:45:13.026Z,22.43
2017-12-12T18:47:16.075Z,22.42
2017-12-12T18:49:19.169Z,22.43
2017-12-12T18:51:22.197Z,22.42
2017-12-12T18:53:25.280Z,22.42
2017-12-12T18:55:28.355Z,22.41
2017-12-12T18:57:31.436Z,22.41
2017-12-12T18:59:34.463Z,22.40
2017-12-12T19:01:37.527Z,22.40
2017-12-12T19:03:40.922Z,22.40
2017-12-12T19:05:44.039Z,22.41
2017-12-12T19:07:47.144Z,22.40
2017-12-12T19:09:50.232Z,22.38
2017-12-12T19:11:53.378Z,22.39
2017-12-12T19:13:56.432Z,22.38
2017-12-12T19:15:59.439Z,22.38
2017-12-12T19:18:02.596Z,22.39
2017-12-12T19:20:05.665Z,22.38
2017-12-12T19:22:08.761Z,22.37
2017-12-12T19:24:11.877Z,22.36
2017-12-12T19:26:14.906Z,22.36
2017-12-12T19:28:17.957Z,22.36
2017-12-12T19:30:21.077Z,22.35
2017-12-12T19:32:24.112Z,22.35
2017-12-12T19:34:27.182Z,22.35
2017-12-12T19:36:30.464Z,22.34
2017-12-12T19:38:33.492Z,22.33
2017-12-12T19:40:36.558Z,22.33
2017-12-12T19:42:40.019Z,22.33
2017-12-12T19:44:43.616Z,22.33
2017-12-12T19:46:47.074Z,22.33
2017-12-12T19:48:50.236Z,22.33
2017-12-12T19:50:54.768Z,22.32
2017-12-12T19:52:58.363Z,22.32
2017-12-12T19:55:01.677Z,22.31
2017-12-12T19:57:04.788Z,22.32
2017-12-12T19:59:07.818Z,22.32
2017-12-12T20:01:11.295Z,22.31
2017-12-12T20:03:14.377Z,22.31
2017-12-12T20:05:17.426Z,22.30
2017-12-12T20:07:20.511Z,22.30
2017-12-12T20:09:23.769Z,22.30
2017-12-12T20:11:26.882Z,22.30
2017-12-12T20:13:32.154Z,22.30
2017-12-12T20:15:35.260Z,22.29
2017-12-12T20:17:38.346Z,22.28
2017-12-12T20:19:41.385Z,22.28
2017-12-12T20:21:44.561Z,22.28
2017-12-12T20:23:47.646Z,22.28
2017-12-12T20:25:50.818Z,22.28
2017-12-12T20:27:53.832Z,22.28
2017-12-12T20:29:56.925Z,22.27
2017-12-12T20:32:00.017Z,22.27
2017-12-12T20:34:03.186Z,22.27
2017-12-12T20:36:06.203Z,22.26
2017-12-12T20:38:09.280Z,22.26
2017-12-12T20:40:13.990Z,22.25
2017-12-12T20:42:17.185Z,22.25
2017-12-12T20:44:20.235Z,22.25
2017-12-12T20:46:23.286Z,22.25
2017-12-12T20:48:26.331Z,22.24
2017-12-12T20:50:29.499Z,22.24
2017-12-12T20:52:32.609Z,22.24
2017-12-12T20:54:35.697Z,22.24
2017-12-12T20:56:38.823Z,22.24
2017-12-12T20:58:41.916Z,22.24
2017-12-12T21:00:44.990Z,22.23
2017-12-12T21:02:48.159Z,22.23
2017-12-12T21:04:51.180Z,22.23
2017-12-12T21:06:54.216Z,22.24
2017-12-12T21:08:57.376Z,22.23
2017-12-12T21:11:00.428Z,22.24
2017-12-12T21:13:03.548Z,22.24
2017-12-12T21:15:06.934Z,22.23
2017-12-12T21:17:09.993Z,22.23
2017-12-12T21:19:13.032Z,22.23
2017-12-12T21:21:16.268Z,22.22
2017-12-12T21:23:19.448Z,22.22
2017-12-12T21:25:22.587Z,22.22
2017-12-12T21:27:25.636Z,22.22
2017-12-12T21:29:28.719Z,22.22
2017-12-12T21:31:31.819Z,22.21
2017-12-12T21:33:34.917Z,22.21
2017-12-12T21:35:38.032Z,22.21
2017-12-12T21:37:41.194Z,22.22
2017-12-12T21:39:44.376Z,22.21
2017-12-12T21:41:47.436Z,22.21
2017-12-12T21:43:50.448Z,22.20
2017-12-12T21:45:53.590Z,22.20
2017-12-12T21:47:56.619Z,22.19
2017-12-12T21:49:59.632Z,22.19
2017-12-12T21:52:02.765Z,22.18
2017-12-12T21:54:05.876Z,22.18
2017-12-12T21:56:08.892Z,22.17
2017-12-12T21:58:12.046Z,22.16
2017-12-12T22:00:15.108Z,22.16
2017-12-12T22:02:18.273Z,22.16
2017-12-12T22:04:21.383Z,22.16
2017-12-12T22:06:24.496Z,22.15
2017-12-12T22:08:27.547Z,22.15
2017-12-12T22:10:30.910Z,22.15
2017-12-12T22:12:33.994Z,22.14
2017-12-12T22:14:37.097Z,22.14
2017-12-12T22:16:40.162Z,22.15
2017-12-12T22:18:43.252Z,22.14
2017-12-12T22:20:46.299Z,22.14
2017-12-12T22:22:49.624Z,22.13
2017-12-12T22:24:52.811Z,22.14
2017-12-12T22:26:55.836Z,22.13
2017-12-12T22:28:58.879Z,22.14
2017-12-12T22:31:01.952Z,22.13
2017-12-12T22:33:05.118Z,22.13
2017-12-12T22:35:08.255Z,22.12
2017-12-12T22:37:11.376Z,22.12
2017-12-12T22:39:14.533Z,22.11
2017-12-12T22:41:17.732Z,22.12
2017-12-12T22:43:20.810Z,22.12
2017-12-12T22:45:23.775Z,22.11
2017-12-12T22:47:26.872Z,22.12
2017-12-12T22:49:30.119Z,22.12
2017-12-12T22:51:33.139Z,22.11
2017-12-12T22:53:36.261Z,22.11
2017-12-12T22:55:39.399Z,22.11
2017-12-12T22:57:42.468Z,22.11
2017-12-12T22:59:45.608Z,22.10
2017-12-12T23:01:48.847Z,22.10
2017-12-12T23:03:51.887Z,22.10
2017-12-12T23:05:55.020Z,22.10
2017-12-12T23:07:58.052Z,22.10
2017-12-12T23:10:01.107Z,22.10
2017-12-12T23:12:04.172Z,22.10
2017-12-12T23:14:07.212Z,22.09
2017-12-12T23:16:10.285Z,22.08
2017-12-12T23:18:13.416Z,22.08
2017-12-12T23:20:16.418Z,22.07
2017-12-12T23:22:19.445Z,22.07
2017-12-12T23:24:22.538Z,22.07
2017-12-12T23:26:25.629Z,22.06
2017-12-12T23:28:28.746Z,22.06
2017-12-12T23:30:31.872Z,22.06
2017-12-12T23:32:34.951Z,22.06
2017-12-12T23:34:38.024Z,22.07
2017-12-12T23:36:41.076Z,22.06
2017-12-12T23:38:44.114Z,22.06
2017-12-12T23:40:47.144Z,22.06
2017-12-12T23:42:50.257Z,22.05
2017-12-12T23:44:53.276Z,22.04
2017-12-12T23:46:56.352Z,22.04
2017-12-12T23:48:59.515Z,22.04
2017-12-12T23:51:02.637Z,22.04
2017-12-12T23:53:05.713Z,22.05
2017-12-12T23:55:08.837Z,22.04
2017-12-12T23:57:11.866Z,22.04
2017-12-12T23:59:14.884Z,22.04
